Time;durP1;ratioP1;P1;durP2;ratioP2;P2;SDS_P1;SDS_P2;PMS_P1;PMS_P2;Temp;Humidity;BMP_temperature;BMP_pressure;BME280_temperature;BME280_humidity;BME280_pressure;Samples;Min_cycle;Max_cycle;Signal;HPM_P1;HPM_P2
2023/08/07 00:00:05;;;;;;;;;;;;;;;12.62;100.00;101316.44;4992694;28;19924;-55
2023/08/07 00:02:30;;;;;;;;;;;;;;;12.61;100.00;101317.28;5009367;28;19920;-55
2023/08/07 00:04:57;;;;;;;;;;;;;;;12.62;100.00;101321.69;4998925;28;19941;-55
2023/08/07 00:07:24;;;;;;;;;;;;;;;12.56;100.00;101324.16;4998960;28;20398;-55
2023/08/07 00:09:49;;;;;;;;;;;;;;;12.60;100.00;101332.94;4999561;28;19923;-55
2023/08/07 00:12:14;;;;;;;;;;;;;;;12.52;100.00;101333.63;5007372;28;19917;-55
2023/08/07 00:14:40;;;;;;;;;;;;;;;12.49;100.00;101317.88;5003227;28;20276;-55
2023/08/07 00:17:05;;;;;;;;;;;;;;;12.47;100.00;101321.31;4998932;28;19917;-55
2023/08/07 00:19:30;;;;;;;;;;;;;;;12.50;100.00;101331.88;5004095;28;20016;-55
2023/08/07 00:21:56;;;;;;;;;;;;;;;12.53;100.00;101326.69;5000925;28;19913;-55
2023/08/07 00:24:21;;;;;;;;;;;;;;;12.58;100.00;101309.38;5008454;28;19959;-55
2023/08/07 00:26:46;;;;;;;;;;;;;;;12.55;100.00;101322.38;5009840;28;19913;-55
2023/08/07 00:29:11;;;;;;;;;;;;;;;12.56;100.00;101326.78;5001950;28;19948;-55
2023/08/07 00:31:37;;;;;;;;;;;;;;;12.70;100.00;101325.34;5005305;28;19920;-55
2023/08/07 00:34:03;;;;;;;;;;;;;;;12.65;100.00;101324.34;5006157;28;20384;-55
2023/08/07 00:36:29;;;;;;;;;;;;;;;12.52;100.00;101324.94;5010296;28;19920;-55
2023/08/07 00:38:54;;;;;;;;;;;;;;;12.43;100.00;101322.13;5010818;28;19996;-55
2023/08/07 00:41:20;;;;;;;;;;;;;;;12.53;100.00;101329.31;4997407;28;19960;-55
2023/08/07 00:43:45;;;;;;;;;;;;;;;12.50;100.00;101319.66;4994494;28;20016;-55
2023/08/07 00:46:10;;;;;;;;;;;;;;;12.56;100.00;101331.09;5007921;28;19917;-55
2023/08/07 00:48:35;;;;;;;;;;;;;;;12.36;100.00;101336.75;5007003;28;19923;-55
2023/08/07 00:51:01;;;;;;;;;;;;;;;12.46;100.00;101330.91;5009339;28;19918;-55
2023/08/07 00:53:27;;;;;;;;;;;;;;;12.43;100.00;101330.81;4998697;28;19905;-55
2023/08/07 00:55:52;;;;;;;;;;;;;;;12.64;100.00;101337.41;5000845;28;19916;-55
2023/08/07 00:58:18;;;;;;;;;;;;;;;12.48;100.00;101326.59;4991115;28;19910;-55
2023/08/07 01:00:43;;;;;;;;;;;;;;;12.45;100.00;101333.47;4978649;28;19921;-55
2023/08/07 01:03:11;;;;;;;;;;;;;;;12.63;100.00;101319.94;5008421;28;19917;-55
2023/08/07 01:05:36;;;;;;;;;;;;;;;12.44;100.00;101331.69;5003951;28;19920;-55
2023/08/07 01:08:02;;;;;;;;;;;;;;;12.48;100.00;101329.22;5008883;28;19913;-55
2023/08/07 01:10:51;;;;;;;;;;;;;;;12.35;100.00;101324.53;5008948;28;19936;-54
2023/08/07 01:13:36;;;;;;;;;;;;;;;12.38;100.00;101328.94;4991940;28;19918;-55
2023/08/07 01:16:07;;;;;;;;;;;;;;;12.39;100.00;101326.38;5004230;28;19924;-55
2023/08/07 01:18:33;;;;;;;;;;;;;;;12.34;100.00;101322.78;5004241;28;20390;-54
2023/08/07 01:20:59;;;;;;;;;;;;;;;12.39;100.00;101325.50;5006138;28;19920;-55
2023/08/07 01:23:24;;;;;;;;;;;;;;;12.35;100.00;101328.03;5009405;28;19910;-55
2023/08/07 01:25:50;;;;;;;;;;;;;;;12.40;100.00;101330.75;5005621;28;19921;-55
2023/08/07 01:28:32;;;;;;;;;;;;;;;12.35;100.00;101335.88;5002061;28;19917;-55
2023/08/07 01:31:00;;;;;;;;;;;;;;;12.41;100.00;101348.22;5006703;28;19920;-55
2023/08/07 01:33:51;;;;;;;;;;;;;;;12.38;100.00;101337.66;5000787;28;19963;-56
2023/08/07 01:36:17;;;;;;;;;;;;;;;12.39;100.00;101344.66;4992883;28;19914;-55
2023/08/07 01:38:42;;;;;;;;;;;;;;;12.37;100.00;101342.84;5010535;28;19920;-55
2023/08/07 01:41:08;;;;;;;;;;;;;;;12.39;100.00;101349.88;5010598;28;20423;-55
2023/08/07 01:43:34;;;;;;;;;;;;;;;12.47;100.00;101342.22;5009317;28;20634;-55
2023/08/07 01:45:59;;;;;;;;;;;;;;;12.42;100.00;101343.84;5010862;28;19910;-55
2023/08/07 01:48:24;;;;;;;;;;;;;;;12.38;100.00;101345.50;4997009;28;20371;-55
2023/08/07 01:50:50;;;;;;;;;;;;;;;12.51;100.00;101354.53;4998569;28;19906;-55
2023/08/07 01:53:15;;;;;;;;;;;;;;;12.50;100.00;101347.53;4994533;28;19913;-55
2023/08/07 01:55:40;;;;;;;;;;;;;;;12.55;100.00;101343.28;4983343;28;20299;-55
2023/08/07 01:58:05;;;;;;;;;;;;;;;12.52;100.00;101361.53;4994412;28;19914;-55
2023/08/07 02:00:31;;;;;;;;;;;;;;;12.56;100.00;101349.41;4992560;28;19917;-55
2023/08/07 02:02:57;;;;;;;;;;;;;;;12.48;100.00;101364.91;5009666;28;19920;-54
2023/08/07 02:05:22;;;;;;;;;;;;;;;12.47;100.00;101360.50;4993988;28;19914;-54
2023/08/07 02:07:47;;;;;;;;;;;;;;;12.44;100.00;101370.91;5000636;28;19910;-55
2023/08/07 02:10:12;;;;;;;;;;;;;;;12.37;100.00;101363.75;5010431;28;19913;-55
2023/08/07 02:12:37;;;;;;;;;;;;;;;12.27;100.00;101373.13;5011084;28;19980;-55
2023/08/07 02:15:03;;;;;;;;;;;;;;;12.41;100.00;101370.81;5001408;28;20041;-55
2023/08/07 02:17:30;;;;;;;;;;;;;;;12.41;100.00;101368.22;5011329;28;19920;-55
2023/08/07 02:19:55;;;;;;;;;;;;;;;12.23;100.00;101369.53;5011166;28;19917;-55
2023/08/07 02:22:20;;;;;;;;;;;;;;;12.35;100.00;101368.94;5011718;28;20343;-55
2023/08/07 02:24:45;;;;;;;;;;;;;;;12.33;100.00;101376.75;5005802;28;19939;-55
2023/08/07 02:27:11;;;;;;;;;;;;;;;12.29;100.00;101367.06;5010550;28;19914;-55
2023/08/07 02:29:36;;;;;;;;;;;;;;;12.24;100.00;101367.78;5005130;28;19957;-55
2023/08/07 02:32:02;;;;;;;;;;;;;;;12.21;100.00;101371.22;4999127;28;19913;-55
2023/08/07 02:34:28;;;;;;;;;;;;;;;12.18;100.00;101360.72;5006883;28;20054;-55
2023/08/07 02:36:53;;;;;;;;;;;;;;;12.16;100.00;101352.81;4996855;28;19917;-55
2023/08/07 02:39:18;;;;;;;;;;;;;;;12.15;100.00;101360.59;4999436;28;19917;-56
2023/08/07 02:41:43;;;;;;;;;;;;;;;12.11;100.00;101351.81;5008073;28;20439;-55
2023/08/07 02:44:08;;;;;;;;;;;;;;;12.15;100.00;101350.16;5010119;28;19974;-55
2023/08/07 02:46:35;;;;;;;;;;;;;;;12.13;100.00;101354.47;5012614;28;19917;-55
2023/08/07 02:49:01;;;;;;;;;;;;;;;12.24;100.00;101357.34;5010947;28;19918;-55
2023/08/07 02:51:26;;;;;;;;;;;;;;;12.12;100.00;101357.91;5006443;28;19921;-56
2023/08/07 02:53:51;;;;;;;;;;;;;;;12.10;100.00;101357.88;5009171;28;19991;-55
2023/08/07 02:56:16;;;;;;;;;;;;;;;12.12;100.00;101360.53;5010895;28;19921;-55
2023/08/07 02:58:42;;;;;;;;;;;;;;;12.10;100.00;101364.84;5000135;28;19902;-55
2023/08/07 03:01:07;;;;;;;;;;;;;;;12.09;100.00;101370.91;4998134;28;20396;-55
2023/08/07 03:03:32;;;;;;;;;;;;;;;12.09;100.00;101377.00;5000139;28;19913;-55
2023/08/07 03:05:58;;;;;;;;;;;;;;;12.09;100.00;101386.56;5009949;28;19924;-55
2023/08/07 03:08:23;;;;;;;;;;;;;;;12.09;100.00;101382.22;5009492;28;19924;-56
2023/08/07 03:10:56;;;;;;;;;;;;;;;12.08;100.00;101375.25;5008155;28;19920;-56
2023/08/07 03:13:21;;;;;;;;;;;;;;;12.09;100.00;101370.91;4988360;28;19940;-56
2023/08/07 03:15:49;;;;;;;;;;;;;;;12.13;100.00;101372.75;5009201;28;20007;-56
2023/08/07 03:18:14;;;;;;;;;;;;;;;12.11;100.00;101369.22;5009262;28;19920;-55
2023/08/07 03:20:39;;;;;;;;;;;;;;;12.21;100.00;101359.88;5005520;28;19913;-56
2023/08/07 03:23:04;;;;;;;;;;;;;;;12.17;100.00;101353.72;5006844;28;19945;-55
2023/08/07 03:25:29;;;;;;;;;;;;;;;12.12;100.00;101350.97;5005371;28;19913;-55
2023/08/07 03:27:55;;;;;;;;;;;;;;;12.13;100.00;101363.19;4999318;28;20148;-55
2023/08/07 03:30:20;;;;;;;;;;;;;;;12.15;100.00;101348.44;5010481;28;20379;-55
2023/08/07 03:32:45;;;;;;;;;;;;;;;12.15;100.00;101344.94;4992923;28;20011;-55
2023/08/07 03:35:10;;;;;;;;;;;;;;;12.21;100.00;101341.59;5007200;28;19918;-55
2023/08/07 03:37:36;;;;;;;;;;;;;;;12.20;100.00;101352.91;5005613;28;19913;-56
2023/08/07 03:40:01;;;;;;;;;;;;;;;12.24;100.00;101349.50;5011570;28;20363;-56
2023/08/07 03:42:26;;;;;;;;;;;;;;;12.31;100.00;101348.81;5010099;28;19909;-56
2023/08/07 03:44:51;;;;;;;;;;;;;;;12.30;100.00;101350.53;5005067;28;19914;-55
2023/08/07 03:47:17;;;;;;;;;;;;;;;12.26;100.00;101343.47;4998666;28;20202;-55
2023/08/07 03:49:42;;;;;;;;;;;;;;;12.22;100.00;101345.97;5001268;28;19964;-55
2023/08/07 03:52:07;;;;;;;;;;;;;;;12.21;100.00;101344.19;4992224;28;19921;-55
2023/08/07 03:54:32;;;;;;;;;;;;;;;12.22;100.00;101348.59;5008062;28;19935;-55
2023/08/07 03:56:57;;;;;;;;;;;;;;;12.22;100.00;101346.84;5011607;28;20371;-55
2023/08/07 03:59:22;;;;;;;;;;;;;;;12.27;100.00;101344.38;5011687;28;19909;-56
2023/08/07 04:01:48;;;;;;;;;;;;;;;12.32;100.00;101351.44;5011531;28;19909;-55
2023/08/07 04:04:13;;;;;;;;;;;;;;;12.33;100.00;101353.22;5002854;28;20392;-55
2023/08/07 04:06:38;;;;;;;;;;;;;;;12.40;100.00;101358.59;4995000;28;19922;-55
2023/08/07 04:09:03;;;;;;;;;;;;;;;12.49;100.00;101353.63;5005096;28;19914;-55
2023/08/07 04:11:29;;;;;;;;;;;;;;;12.74;100.00;101368.13;5010689;28;20413;-55
2023/08/07 04:13:54;;;;;;;;;;;;;;;12.62;100.00;101355.66;5002971;28;19917;-55
2023/08/07 04:16:19;;;;;;;;;;;;;;;12.56;100.00;101352.91;5000596;28;19913;-55
2023/08/07 04:18:44;;;;;;;;;;;;;;;12.58;100.00;101356.44;5008849;28;19936;-56
2023/08/07 04:21:10;;;;;;;;;;;;;;;12.55;100.00;101360.72;5009646;28;20508;-55
2023/08/07 04:23:35;;;;;;;;;;;;;;;12.53;100.00;101356.34;4988811;28;19920;-55
2023/08/07 04:26:00;;;;;;;;;;;;;;;12.55;100.00;101361.59;4999677;28;19917;-55
2023/08/07 04:28:27;;;;;;;;;;;;;;;12.52;100.00;101359.78;4997747;28;19906;-55
2023/08/07 04:30:52;;;;;;;;;;;;;;;12.61;100.00;101361.72;5000446;28;19914;-55
2023/08/07 04:33:18;;;;;;;;;;;;;;;12.58;100.00;101366.88;5008955;28;20292;-55
2023/08/07 04:35:43;;;;;;;;;;;;;;;12.60;100.00;101367.81;5007331;28;19971;-55
2023/08/07 04:38:08;;;;;;;;;;;;;;;12.58;100.00;101369.50;5008793;28;19995;-55
2023/08/07 04:40:34;;;;;;;;;;;;;;;12.52;100.00;101369.38;4998359;28;20006;-55
2023/08/07 04:42:59;;;;;;;;;;;;;;;12.64;100.00;101371.38;5009924;28;19913;-55
2023/08/07 04:45:24;;;;;;;;;;;;;;;12.60;100.00;101380.91;5006892;28;19963;-55
2023/08/07 04:47:49;;;;;;;;;;;;;;;12.59;100.00;101373.91;5005469;28;20348;-55
2023/08/07 04:50:15;;;;;;;;;;;;;;;12.68;100.00;101376.72;5001346;28;19917;-55
2023/08/07 04:52:40;;;;;;;;;;;;;;;12.57;100.00;101374.69;5007111;28;19934;-54
2023/08/07 04:55:05;;;;;;;;;;;;;;;12.63;100.00;101365.28;4999002;28;19922;-55
2023/08/07 04:57:30;;;;;;;;;;;;;;;12.61;100.00;101376.53;5003755;28;19917;-55
2023/08/07 04:59:56;;;;;;;;;;;;;;;12.60;100.00;101377.38;5003175;28;19971;-56
2023/08/07 05:02:21;;;;;;;;;;;;;;;12.60;100.00;101373.06;5007936;28;20591;-55
2023/08/07 05:04:46;;;;;;;;;;;;;;;12.68;100.00;101376.72;5004683;28;19913;-55
2023/08/07 05:07:12;;;;;;;;;;;;;;;12.65;100.00;101373.16;5005439;28;20283;-55
2023/08/07 05:09:37;;;;;;;;;;;;;;;12.87;100.00;101387.59;5008989;28;19928;-54
2023/08/07 05:12:02;;;;;;;;;;;;;;;12.79;100.00;101386.53;4992181;28;19913;-55
2023/08/07 05:14:29;;;;;;;;;;;;;;;12.77;100.00;101394.34;4995683;28;19921;-56
2023/08/07 05:16:54;;;;;;;;;;;;;;;12.80;100.00;101389.22;5007908;28;19925;-55
2023/08/07 05:19:19;;;;;;;;;;;;;;;12.74;100.00;101391.66;5008058;28;19921;-55
2023/08/07 05:21:49;;;;;;;;;;;;;;;12.68;100.00;101391.53;5007385;28;20398;-55
2023/08/07 05:24:14;;;;;;;;;;;;;;;12.70;100.00;101388.13;5009879;28;19981;-55
2023/08/07 05:26:40;;;;;;;;;;;;;;;12.79;100.00;101397.00;5001594;28;19969;-55
2023/08/07 05:29:06;;;;;;;;;;;;;;;12.76;100.00;101399.53;5005417;28;20483;-55
2023/08/07 05:31:32;;;;;;;;;;;;;;;12.65;100.00;101401.91;5011807;28;20055;-55
2023/08/07 05:33:57;;;;;;;;;;;;;;;12.82;100.00;101404.94;5002577;28;19929;-55
2023/08/07 05:36:22;;;;;;;;;;;;;;;12.81;100.00;101409.25;5007448;28;19913;-55
2023/08/07 05:38:47;;;;;;;;;;;;;;;12.79;100.00;101413.59;5010373;28;20386;-55
2023/08/07 05:41:12;;;;;;;;;;;;;;;12.80;100.00;101414.47;4995735;28;20008;-55
2023/08/07 05:43:38;;;;;;;;;;;;;;;12.81;100.00;101421.47;5010854;28;19916;-55
2023/08/07 05:46:03;;;;;;;;;;;;;;;12.74;100.00;101422.16;5013959;28;20000;-55
2023/08/07 05:48:28;;;;;;;;;;;;;;;12.85;100.00;101441.63;5012836;28;19913;-55
2023/08/07 05:50:53;;;;;;;;;;;;;;;12.84;100.00;101447.69;4999580;28;19943;-55
2023/08/07 05:53:19;;;;;;;;;;;;;;;12.89;100.00;101435.63;4994854;28;19910;-55
2023/08/07 05:55:44;;;;;;;;;;;;;;;12.71;100.00;101436.03;4994316;28;20284;-55
2023/08/07 05:58:09;;;;;;;;;;;;;;;12.73;100.00;101438.69;4999192;28;19913;-55
2023/08/07 06:00:35;;;;;;;;;;;;;;;12.66;100.00;101428.09;5010107;28;19913;-55
2023/08/07 06:03:00;;;;;;;;;;;;;;;12.70;100.00;101434.28;4995772;28;19913;-55
2023/08/07 06:05:25;;;;;;;;;;;;;;;12.67;100.00;101432.50;4994198;28;19929;-55
2023/08/07 06:07:50;;;;;;;;;;;;;;;12.76;100.00;101436.16;4997351;28;20435;-55
2023/08/07 06:10:16;;;;;;;;;;;;;;;12.80;100.00;101440.63;5003077;28;19913;-55
2023/08/07 06:12:41;;;;;;;;;;;;;;;12.78;100.00;101439.72;4994030;28;19910;-55
2023/08/07 06:15:06;;;;;;;;;;;;;;;12.89;100.00;101446.09;4993758;28;19914;-55
2023/08/07 06:17:31;;;;;;;;;;;;;;;12.88;100.00;101444.31;5009101;28;19914;-55
2023/08/07 06:19:57;;;;;;;;;;;;;;;12.92;100.00;101440.03;5009773;28;19919;-56
2023/08/07 06:22:22;;;;;;;;;;;;;;;12.92;100.00;101445.25;5008713;28;19995;-55
2023/08/07 06:24:47;;;;;;;;;;;;;;;12.87;100.00;101439.91;4995160;28;19924;-55
2023/08/07 06:27:12;;;;;;;;;;;;;;;12.89;100.00;101440.84;5010379;28;19967;-55
2023/08/07 06:29:37;;;;;;;;;;;;;;;12.88;100.00;101446.91;4991507;28;19936;-55
2023/08/07 06:32:03;;;;;;;;;;;;;;;13.04;100.00;101456.00;5005900;28;20387;-55
2023/08/07 06:34:28;;;;;;;;;;;;;;;13.15;100.00;101461.47;5010219;28;19925;-54
2023/08/07 06:36:53;;;;;;;;;;;;;;;13.30;100.00;101469.69;5011155;28;20360;-55
2023/08/07 06:39:19;;;;;;;;;;;;;;;13.42;100.00;101470.84;5009837;28;19913;-55
2023/08/07 06:41:44;;;;;;;;;;;;;;;13.49;100.00;101471.00;5011662;28;20403;-55
2023/08/07 06:44:09;;;;;;;;;;;;;;;13.63;100.00;101478.25;5008148;28;19914;-55
2023/08/07 06:46:34;;;;;;;;;;;;;;;13.57;100.00;101479.06;5011254;28;19920;-55
2023/08/07 06:48:59;;;;;;;;;;;;;;;13.54;100.00;101474.63;5010632;28;19913;-55
2023/08/07 06:51:25;;;;;;;;;;;;;;;13.57;100.00;101479.06;5006821;28;19917;-55
2023/08/07 06:53:50;;;;;;;;;;;;;;;13.60;100.00;101486.06;5009092;28;20313;-55
2023/08/07 06:56:15;;;;;;;;;;;;;;;13.57;100.00;101479.06;5008458;28;19917;-55
2023/08/07 06:58:40;;;;;;;;;;;;;;;13.55;100.00;101486.84;5010166;28;19920;-56
2023/08/07 07:01:06;;;;;;;;;;;;;;;13.55;100.00;101480.72;4998141;28;20047;-55
2023/08/07 07:03:31;;;;;;;;;;;;;;;13.70;100.00;101480.16;5008542;28;20355;-55
2023/08/07 07:05:56;;;;;;;;;;;;;;;13.75;100.00;101486.41;5009095;28;19928;-55
2023/08/07 07:08:23;;;;;;;;;;;;;;;13.77;100.00;101476.81;5009301;28;19913;-55
2023/08/07 07:10:48;;;;;;;;;;;;;;;13.84;100.00;101488.31;5002859;28;19921;-55
2023/08/07 07:13:13;;;;;;;;;;;;;;;14.04;97.96;101486.09;4993431;28;19914;-54
2023/08/07 07:15:38;;;;;;;;;;;;;;;13.91;99.53;101496.31;5008087;28;19921;-55
2023/08/07 07:18:04;;;;;;;;;;;;;;;14.04;98.19;101499.22;4986168;28;19957;-55
2023/08/07 07:20:29;;;;;;;;;;;;;;;13.94;99.97;101506.00;5004055;28;19920;-55
2023/08/07 07:22:54;;;;;;;;;;;;;;;13.88;100.00;101513.72;4992851;28;19917;-55
2023/08/07 07:25:19;;;;;;;;;;;;;;;13.85;100.00;101519.78;5000077;28;19936;-55
2023/08/07 07:27:45;;;;;;;;;;;;;;;13.86;100.00;101525.91;5012459;28;19910;-55
2023/08/07 07:30:10;;;;;;;;;;;;;;;13.72;100.00;101536.09;5010986;28;19936;-55
2023/08/07 07:32:35;;;;;;;;;;;;;;;13.56;100.00;101534.88;4992609;28;19949;-55
2023/08/07 07:35:01;;;;;;;;;;;;;;;13.53;100.00;101534.81;4992641;28;19964;-55
2023/08/07 07:37:26;;;;;;;;;;;;;;;13.49;100.00;101539.06;5000936;28;19914;-55
2023/08/07 07:39:51;;;;;;;;;;;;;;;13.52;100.00;101533.03;5010487;28;20000;-56
2023/08/07 07:42:16;;;;;;;;;;;;;;;13.52;100.00;101538.28;4993653;28;19909;-55
2023/08/07 07:44:41;;;;;;;;;;;;;;;13.55;100.00;101538.34;4997147;28;19996;-56
2023/08/07 07:47:07;;;;;;;;;;;;;;;13.56;100.00;101558.44;5010197;28;19917;-55
2023/08/07 07:49:33;;;;;;;;;;;;;;;13.55;100.00;101549.69;5009694;28;19909;-56
2023/08/07 07:51:58;;;;;;;;;;;;;;;13.57;100.00;101547.13;4996647;28;19918;-56
2023/08/07 07:54:23;;;;;;;;;;;;;;;13.51;100.00;101547.88;4992194;28;19914;-56
2023/08/07 07:56:48;;;;;;;;;;;;;;;13.45;100.00;101549.44;4995164;28;19913;-55
2023/08/07 07:59:14;;;;;;;;;;;;;;;13.44;100.00;101556.44;5003710;28;19913;-56
2023/08/07 08:01:39;;;;;;;;;;;;;;;13.47;100.00;101558.22;4993356;28;20410;-55
2023/08/07 08:04:04;;;;;;;;;;;;;;;13.49;100.00;101557.41;5000103;28;19964;-56
2023/08/07 08:06:30;;;;;;;;;;;;;;;13.55;100.00;101557.53;5009980;28;19967;-56
2023/08/07 08:08:56;;;;;;;;;;;;;;;13.62;100.00;101558.56;5009568;28;20004;-56
2023/08/07 08:11:21;;;;;;;;;;;;;;;13.70;100.00;101559.63;5008535;28;19917;-55
2023/08/07 08:13:46;;;;;;;;;;;;;;;13.75;100.00;101559.72;5003304;28;20403;-56
2023/08/07 08:16:11;;;;;;;;;;;;;;;13.75;100.00;101562.34;5002976;28;19917;-56
2023/08/07 08:18:37;;;;;;;;;;;;;;;13.78;100.00;101561.53;5010994;28;20291;-54
2023/08/07 08:21:02;;;;;;;;;;;;;;;13.90;100.00;101567.03;5010838;28;19917;-56
2023/08/07 08:23:27;;;;;;;;;;;;;;;14.07;100.00;101567.41;5002784;28;19917;-55
2023/08/07 08:25:52;;;;;;;;;;;;;;;14.34;100.00;101556.59;5010830;28;20016;-56
2023/08/07 08:28:18;;;;;;;;;;;;;;;14.65;100.00;101557.19;5011143;28;19995;-56
2023/08/07 08:30:43;;;;;;;;;;;;;;;14.90;100.00;101550.66;5009229;28;19925;-56
2023/08/07 08:33:12;;;;;;;;;;;;;;;15.06;100.00;101557.03;5007740;28;19917;-56
2023/08/07 08:35:37;;;;;;;;;;;;;;;15.38;96.72;101543.53;5001865;28;19925;-56
2023/08/07 08:38:03;;;;;;;;;;;;;;;15.69;89.97;101550.97;4998493;28;19996;-56
2023/08/07 08:40:28;;;;;;;;;;;;;;;15.63;88.30;101551.78;5002090;28;19921;-55
2023/08/07 08:42:57;;;;;;;;;;;;;;;15.59;86.27;101565.72;5001282;28;19917;-55
2023/08/07 08:45:23;;;;;;;;;;;;;;;15.76;87.55;101569.47;5010865;28;20374;-55
2023/08/07 08:47:51;;;;;;;;;;;;;;;15.73;88.30;101566.81;5010490;28;19914;-55
2023/08/07 08:50:16;;;;;;;;;;;;;;;15.80;85.18;101566.06;5003514;28;20013;-55
2023/08/07 08:52:42;;;;;;;;;;;;;;;15.70;85.44;101566.78;5001847;28;20022;-56
2023/08/07 08:55:08;;;;;;;;;;;;;;;15.64;83.15;101572.81;4992948;28;19913;-56
2023/08/07 08:57:34;;;;;;;;;;;;;;;15.63;83.05;101568.41;4998600;28;20503;-55
2023/08/07 09:00:00;;;;;;;;;;;;;;;15.85;82.01;101581.00;5003872;28;20005;-55
2023/08/07 09:02:26;;;;;;;;;;;;;;;16.07;82.11;101577.78;4996820;28;19923;-56
2023/08/07 09:04:51;;;;;;;;;;;;;;;16.15;81.96;101576.16;4994238;28;19989;-56
2023/08/07 09:07:19;;;;;;;;;;;;;;;16.22;81.92;101577.13;5008578;28;20391;-56
2023/08/07 09:09:46;;;;;;;;;;;;;;;16.22;81.31;101592.00;4993374;28;19919;-56
2023/08/07 09:12:16;;;;;;;;;;;;;;;16.36;77.06;101598.28;5002655;28;19956;-55
2023/08/07 09:14:41;;;;;;;;;;;;;;;16.42;79.23;101585.22;4996666;28;19922;-56
2023/08/07 09:17:07;;;;;;;;;;;;;;;16.55;80.41;101588.00;4999924;28;20372;-56
2023/08/07 09:19:32;;;;;;;;;;;;;;;16.67;77.52;101590.78;4996507;28;19917;-56
2023/08/07 09:21:58;;;;;;;;;;;;;;;16.71;79.15;101602.19;5006704;28;19921;-56
2023/08/07 09:24:23;;;;;;;;;;;;;;;16.91;72.72;101594.53;5008338;28;19944;-56
2023/08/07 09:26:50;;;;;;;;;;;;;;;16.85;77.46;101590.94;4983385;28;20000;-56
2023/08/07 09:29:15;;;;;;;;;;;;;;;17.10;73.97;101599.09;5004538;28;19917;-56
2023/08/07 09:31:45;;;;;;;;;;;;;;;17.05;74.66;101595.53;5008953;28;20008;-56
2023/08/07 09:34:10;;;;;;;;;;;;;;;17.28;74.46;101590.47;5005151;28;19921;-56
2023/08/07 09:36:35;;;;;;;;;;;;;;;17.44;74.07;101591.47;5002078;28;20437;-55
2023/08/07 09:39:02;;;;;;;;;;;;;;;17.63;70.22;101591.59;5004846;28;19921;-56
2023/08/07 09:41:28;;;;;;;;;;;;;;;17.52;70.96;101596.78;5008432;28;20434;-56
2023/08/07 09:43:54;;;;;;;;;;;;;;;17.34;70.98;101598.41;5000416;28;19928;-56
2023/08/07 09:46:19;;;;;;;;;;;;;;;17.13;70.32;101596.50;4994671;28;19906;-56
2023/08/07 09:48:44;;;;;;;;;;;;;;;17.15;69.50;101597.38;5004387;28;19913;-56
2023/08/07 09:51:10;;;;;;;;;;;;;;;17.18;71.98;101601.81;5010297;28;20391;-56
2023/08/07 09:53:35;;;;;;;;;;;;;;;17.29;70.94;101604.50;5003343;28;19925;-56
2023/08/07 09:56:01;;;;;;;;;;;;;;;17.52;66.03;101617.84;4996623;28;19921;-55
2023/08/07 09:58:26;;;;;;;;;;;;;;;17.66;64.81;101618.84;5003578;28;20397;-56
2023/08/07 10:00:59;;;;;;;;;;;;;;;17.78;62.99;101607.47;5006117;28;20363;-56
2023/08/07 10:03:25;;;;;;;;;;;;;;;17.79;64.19;101613.66;5004201;28;19967;-56
2023/08/07 10:05:50;;;;;;;;;;;;;;;17.95;66.79;101614.66;5008436;28;19921;-55
2023/08/07 10:08:16;;;;;;;;;;;;;;;17.94;64.51;101624.31;5007050;28;20435;-56
2023/08/07 10:10:41;;;;;;;;;;;;;;;17.96;64.21;101626.94;5008032;28;19913;-55
2023/08/07 10:13:07;;;;;;;;;;;;;;;17.72;67.45;101624.13;4994423;28;19917;-55
2023/08/07 10:15:34;;;;;;;;;;;;;;;17.71;67.43;101625.03;5007990;28;19924;-56
2023/08/07 10:17:59;;;;;;;;;;;;;;;17.93;63.77;101619.03;5008507;28;20004;-57
2023/08/07 10:20:26;;;;;;;;;;;;;;;17.85;63.29;101630.38;5011928;28;20346;-56
2023/08/07 10:22:52;;;;;;;;;;;;;;;17.83;64.69;101625.97;5008163;28;19913;-56
2023/08/07 10:25:20;;;;;;;;;;;;;;;18.00;70.65;101621.72;5009853;28;19913;-56
2023/08/07 10:27:46;;;;;;;;;;;;;;;18.22;68.74;101632.38;5009775;28;19949;-56
2023/08/07 10:30:13;;;;;;;;;;;;;;;18.49;64.07;101641.28;5009666;28;20407;-56
2023/08/07 10:32:38;;;;;;;;;;;;;;;18.50;59.98;101633.34;5007003;28;19964;-54
2023/08/07 10:35:07;;;;;;;;;;;;;;;18.50;59.20;101629.84;5005357;28;19917;-55
2023/08/07 10:37:38;;;;;;;;;;;;;;;18.46;59.93;101639.50;5000167;28;19944;-56
2023/08/07 10:40:09;;;;;;;;;;;;;;;18.64;57.60;101632.50;5009939;28;20283;-56
2023/08/07 10:42:52;;;;;;;;;;;;;;;18.47;59.59;101643.91;4995209;28;19957;-56
2023/08/07 10:45:18;;;;;;;;;;;;;;;18.47;61.88;101646.53;5005303;28;19916;-55
2023/08/07 10:47:43;;;;;;;;;;;;;;;18.51;60.45;101648.31;5008194;28;19914;-55
2023/08/07 10:50:09;;;;;;;;;;;;;;;18.50;60.06;101641.28;5012212;28;19920;-55
2023/08/07 10:52:37;;;;;;;;;;;;;;;18.37;58.16;101653.53;5004814;28;20372;-56
2023/08/07 10:55:12;;;;;;;;;;;;;;;17.89;61.25;101658.53;5003030;28;19921;-57
2023/08/07 10:57:40;;;;;;;;;;;;;;;17.89;60.92;101653.25;5006046;28;19925;-56
2023/08/07 11:00:06;;;;;;;;;;;;;;;17.86;63.87;101660.28;5003456;28;19913;-56
2023/08/07 11:02:33;;;;;;;;;;;;;;;18.08;64.30;101650.75;5006475;28;19914;-56
2023/08/07 11:04:58;;;;;;;;;;;;;;;18.29;62.36;101647.34;5009446;28;19917;-56
2023/08/07 11:07:27;;;;;;;;;;;;;;;18.56;63.18;101661.53;5006790;28;19922;-56
2023/08/07 11:09:53;;;;;;;;;;;;;;;18.57;61.53;101648.34;5010364;28;19917;-56
2023/08/07 11:12:18;;;;;;;;;;;;;;;18.39;65.86;101658.81;5010729;28;19966;-56
2023/08/07 11:14:44;;;;;;;;;;;;;;;18.65;62.20;101665.97;5002576;28;20454;-56
2023/08/07 11:17:09;;;;;;;;;;;;;;;18.50;62.58;101658.88;4998021;28;19948;-56
2023/08/07 11:19:35;;;;;;;;;;;;;;;18.56;61.17;101662.41;5010584;28;19921;-56
2023/08/07 11:22:00;;;;;;;;;;;;;;;18.80;58.79;101655.47;4991306;28;19917;-55
2023/08/07 11:27:01;;;;;;;;;;;;;;;19.04;59.10;101659.03;5255555;22;20340;-57
2023/08/07 11:29:26;;;;;;;;;;;;;;;19.02;58.07;101650.25;4990401;28;20524;-57
2023/08/07 11:31:51;;;;;;;;;;;;;;;18.91;58.29;101647.56;4991891;28;19914;-56
2023/08/07 11:34:17;;;;;;;;;;;;;;;18.55;58.97;101657.13;4991079;28;20019;-57
2023/08/07 11:36:43;;;;;;;;;;;;;;;18.57;60.73;101648.34;4990546;28;20265;-57
2023/08/07 11:39:08;;;;;;;;;;;;;;;18.69;62.94;101636.94;4990459;28;19914;-57
2023/08/07 11:41:33;;;;;;;;;;;;;;;19.18;58.70;101643.22;4991676;28;19914;-57
2023/08/07 11:43:59;;;;;;;;;;;;;;;19.22;60.59;101659.06;4991690;28;19920;-57
2023/08/07 11:46:25;;;;;;;;;;;;;;;19.47;58.14;101648.50;4992422;28;19910;-57
2023/08/07 11:48:51;;;;;;;;;;;;;;;19.48;59.06;101655.56;4991435;28;19959;-58
2023/08/07 11:51:16;;;;;;;;;;;;;;;19.40;59.79;101655.53;4990913;28;20296;-57
2023/08/07 11:53:42;;;;;;;;;;;;;;;19.46;60.11;101644.09;4989258;28;19920;-57
2023/08/07 11:56:14;;;;;;;;;;;;;;;19.56;55.67;101645.84;4991659;28;20427;-58
2023/08/07 11:58:40;;;;;;;;;;;;;;;19.41;57.04;101640.59;4990287;28;20383;-58
2023/08/07 12:01:11;;;;;;;;;;;;;;;19.32;58.84;101637.94;4990819;28;19918;-58
2023/08/07 12:03:40;;;;;;;;;;;;;;;19.54;55.66;101639.69;4990271;28;19914;-59
2023/08/07 12:06:06;;;;;;;;;;;;;;;19.60;58.56;101639.69;4984045;28;19920;-58
2023/08/07 12:08:36;;;;;;;;;;;;;;;19.77;60.74;101642.31;4987367;28;19949;-58
2023/08/07 12:11:03;;;;;;;;;;;;;;;19.88;56.42;101638.78;4990776;28;19914;-59
2023/08/07 12:13:28;;;;;;;;;;;;;;;19.67;58.41;101643.22;4991788;28;19957;-58
2023/08/07 12:15:54;;;;;;;;;;;;;;;19.61;57.25;101641.44;4991603;28;19976;-58
2023/08/07 12:18:23;;;;;;;;;;;;;;;19.31;59.24;101641.47;4989897;28;19913;-58
2023/08/07 12:20:51;;;;;;;;;;;;;;;19.27;59.06;101643.22;4989541;28;19956;-58
2023/08/07 12:23:17;;;;;;;;;;;;;;;19.21;60.85;101644.09;4986473;28;20853;-58
2023/08/07 12:25:43;;;;;;;;;;;;;;;19.43;58.31;101646.75;4990231;28;19925;-58